createdAt,value
2023-03-15T00:02:27.502Z,59.19
2023-03-15T00:04:55.528Z,59.45
2023-03-15T00:07:25.954Z,59.48
2023-03-15T00:09:53.981Z,61.83
2023-03-15T00:12:23.173Z,60.68
2023-03-15T00:14:51.375Z,61.09
2023-03-15T00:17:19.303Z,61.77
2023-03-15T00:19:48.110Z,61.92
2023-03-15T00:22:16.103Z,63.37
2023-03-15T00:24:45.499Z,62.53
2023-03-15T00:27:13.402Z,64.92
2023-03-15T00:29:41.281Z,63.82
2023-03-15T00:32:09.196Z,64.15
2023-03-15T00:34:37.137Z,63.56
2023-03-15T00:37:05.122Z,63.72
2023-03-15T00:39:37.795Z,64.21
2023-03-15T00:42:07.498Z,64.60
2023-03-15T00:44:35.449Z,64.24
2023-03-15T00:47:03.340Z,66.97
2023-03-15T00:49:31.245Z,67.67
2023-03-15T00:51:59.145Z,67.66
2023-03-15T00:54:27.047Z,68.45
2023-03-15T00:56:54.879Z,69.42
2023-03-15T00:59:24.186Z,71.12
2023-03-15T01:01:52.232Z,71.25
2023-03-15T01:04:20.124Z,70.82
2023-03-15T01:06:47.970Z,69.82
2023-03-15T01:09:15.901Z,70.41
2023-03-15T01:11:43.809Z,71.27
2023-03-15T01:14:11.741Z,72.01
2023-03-15T01:16:41.235Z,71.33
2023-03-15T01:19:09.137Z,72.39
2023-03-15T01:21:37.038Z,72.64
2023-03-15T01:24:04.974Z,71.95
2023-03-15T01:26:32.881Z,72.93
2023-03-15T01:29:00.773Z,72.88
2023-03-15T01:31:31.289Z,73.25
2023-03-15T01:34:01.002Z,74.28
2023-03-15T01:36:29.061Z,74.48
2023-03-15T01:38:57.016Z,74.65
2023-03-15T01:41:25.957Z,75.22
2023-03-15T01:43:53.932Z,75.72
2023-03-15T01:46:27.002Z,75.78
2023-03-15T01:49:04.972Z,75.56
2023-03-15T01:51:37.493Z,75.18
2023-03-15T01:54:09.058Z,74.96
2023-03-15T01:56:41.561Z,74.87
2023-03-15T01:59:15.371Z,75.61
2023-03-15T02:01:45.732Z,76.05
2023-03-15T02:04:19.054Z,76.28
2023-03-15T02:06:48.735Z,77.49
2023-03-15T02:09:22.180Z,77.08
2023-03-15T02:11:50.085Z,77.05
2023-03-15T02:14:18.655Z,76.96
2023-03-15T02:16:46.621Z,76.71
2023-03-15T02:19:31.962Z,77.55
2023-03-15T02:22:08.026Z,77.92
2023-03-15T02:24:47.939Z,78.45
2023-03-15T02:27:16.403Z,78.27
2023-03-15T02:29:45.770Z,78.64
2023-03-15T02:32:13.675Z,79.45
2023-03-15T02:34:41.581Z,79.73
2023-03-15T02:37:09.560Z,79.31
2023-03-15T02:39:37.464Z,78.62
2023-03-15T02:42:06.059Z,78.64
2023-03-15T02:44:36.234Z,77.77
2023-03-15T02:47:08.954Z,77.87
2023-03-15T02:49:41.953Z,79.40
2023-03-15T02:52:12.216Z,78.93
2023-03-15T02:54:43.250Z,78.59
2023-03-15T02:57:11.210Z,78.98
2023-03-15T02:59:39.320Z,78.92
2023-03-15T03:02:09.276Z,80.69
2023-03-15T03:04:37.179Z,81.48
2023-03-15T03:07:05.187Z,81.87
2023-03-15T03:09:33.171Z,81.71
2023-03-15T03:12:01.130Z,81.64
2023-03-15T03:14:29.051Z,81.19
2023-03-15T03:16:57.217Z,81.63
2023-03-15T03:19:26.610Z,82.36
2023-03-15T03:21:54.753Z,82.14
2023-03-15T03:24:25.840Z,82.24
2023-03-15T03:26:58.131Z,82.69
2023-03-15T03:29:26.732Z,82.13
2023-03-15T03:31:54.931Z,81.84
2023-03-15T03:34:22.901Z,82.58
2023-03-15T03:36:52.228Z,82.95
2023-03-15T03:39:20.269Z,83.45
2023-03-15T03:41:48.156Z,84.64
2023-03-15T03:44:16.095Z,85.56
2023-03-15T03:46:44.011Z,86.68
2023-03-15T03:49:11.880Z,86.79
2023-03-15T03:51:39.853Z,87.04
2023-03-15T03:54:09.129Z,87.64
2023-03-15T03:56:37.959Z,87.40
2023-03-15T03:59:05.914Z,87.44
2023-03-15T04:01:33.853Z,86.73
2023-03-15T04:04:01.768Z,86.87
2023-03-15T04:06:29.680Z,87.10
2023-03-15T04:08:57.576Z,86.45
2023-03-15T04:11:27.146Z,85.80
2023-03-15T04:13:55.233Z,86.04
2023-03-15T04:16:24.810Z,86.33
2023-03-15T04:18:56.465Z,87.62
2023-03-15T04:21:24.506Z,87.25
2023-03-15T04:23:52.442Z,86.61
2023-03-15T04:26:20.360Z,86.35
2023-03-15T04:28:49.646Z,87.42
2023-03-15T04:31:17.671Z,88.18
2023-03-15T04:33:45.578Z,88.45
2023-03-15T04:36:18.461Z,88.62
2023-03-15T04:38:47.602Z,88.07
2023-03-15T04:41:16.055Z,87.35
2023-03-15T04:43:44.103Z,86.88
2023-03-15T04:46:13.481Z,86.92
2023-03-15T04:48:41.707Z,87.58
2023-03-15T04:51:09.590Z,86.07
2023-03-15T04:53:39.097Z,87.00
2023-03-15T04:56:08.039Z,88.18
2023-03-15T04:58:36.005Z,89.09
2023-03-15T05:01:03.935Z,89.06
2023-03-15T05:03:33.310Z,88.68
2023-03-15T05:06:08.038Z,88.27
2023-03-15T05:08:36.789Z,88.62
2023-03-15T05:11:05.090Z,88.46
2023-03-15T05:13:33.286Z,89.69
2023-03-15T05:16:01.208Z,89.91
2023-03-15T05:18:29.815Z,89.96
2023-03-15T05:20:59.279Z,89.55
2023-03-15T05:23:27.349Z,90.41
2023-03-15T05:25:56.726Z,89.37
2023-03-15T05:28:25.952Z,88.56
2023-03-15T05:30:54.463Z,88.89
2023-03-15T05:33:22.968Z,88.25
2023-03-15T05:35:50.996Z,87.77
2023-03-15T05:38:20.417Z,87.79
2023-03-15T05:40:48.351Z,87.84
2023-03-15T05:43:16.214Z,87.88
2023-03-15T05:45:44.760Z,88.37
2023-03-15T05:48:12.762Z,88.25
2023-03-15T05:50:40.691Z,87.56
2023-03-15T05:53:08.666Z,87.89
2023-03-15T05:55:38.670Z,88.66
2023-03-15T05:58:06.573Z,88.05
2023-03-15T06:00:34.736Z,88.24
2023-03-15T06:03:02.739Z,88.78
2023-03-15T06:05:30.718Z,89.14
2023-03-15T06:07:58.640Z,88.66
2023-03-15T06:10:26.725Z,88.41
2023-03-15T06:12:56.039Z,87.87
2023-03-15T06:15:24.069Z,85.64
2023-03-15T06:17:51.936Z,80.77
2023-03-15T06:20:20.403Z,78.50
2023-03-15T06:22:48.889Z,76.78
2023-03-15T06:25:17.155Z,77.10
2023-03-15T06:27:45.160Z,74.73
2023-03-15T06:30:17.112Z,73.95
2023-03-15T06:32:45.253Z,76.20
2023-03-15T06:35:13.195Z,77.86
2023-03-15T06:37:41.916Z,79.55
2023-03-15T06:40:12.129Z,80.74
2023-03-15T06:42:41.681Z,79.50
2023-03-15T06:45:10.911Z,79.01
2023-03-15T06:47:40.317Z,77.61
2023-03-15T06:50:09.354Z,78.02
2023-03-15T06:52:37.358Z,79.87
2023-03-15T06:55:06.053Z,78.60
2023-03-15T06:57:33.960Z,79.61
2023-03-15T07:00:07.071Z,78.10
2023-03-15T07:02:37.708Z,74.76
2023-03-15T07:05:08.000Z,73.39
2023-03-15T07:07:35.926Z,73.05
2023-03-15T07:10:04.491Z,73.61
2023-03-15T07:12:32.414Z,74.29
2023-03-15T07:15:00.328Z,74.39
2023-03-15T07:17:28.289Z,74.59
2023-03-15T07:19:56.986Z,76.24
2023-03-15T07:22:26.680Z,76.38
2023-03-15T07:24:54.660Z,74.92
2023-03-15T07:27:22.561Z,74.00
2023-03-15T07:29:50.459Z,73.39
2023-03-15T07:32:18.603Z,72.83
2023-03-15T07:34:46.563Z,71.98
2023-03-15T07:37:14.571Z,73.12
2023-03-15T07:39:44.204Z,73.84
2023-03-15T07:42:12.844Z,71.50
2023-03-15T07:44:40.753Z,70.78
2023-03-15T07:47:09.241Z,73.50
2023-03-15T07:49:37.145Z,72.35
2023-03-15T07:52:05.478Z,71.95
2023-03-15T07:54:34.404Z,71.80
2023-03-15T07:57:03.721Z,69.69
2023-03-15T07:59:32.347Z,69.95
2023-03-15T08:02:02.840Z,67.53
2023-03-15T08:04:31.002Z,68.07
2023-03-15T08:06:58.999Z,70.50
2023-03-15T08:09:26.903Z,67.86
2023-03-15T08:11:54.817Z,69.09
2023-03-15T08:14:24.681Z,70.79
2023-03-15T08:16:52.853Z,70.03
2023-03-15T08:19:22.286Z,70.85
2023-03-15T08:21:53.863Z,70.43
2023-03-15T08:24:22.603Z,69.86
2023-03-15T08:26:51.304Z,69.68
2023-03-15T08:29:19.330Z,67.84
2023-03-15T08:31:48.688Z,66.21
2023-03-15T08:34:17.201Z,65.36
2023-03-15T08:36:47.378Z,67.74
2023-03-15T08:39:15.413Z,67.34
2023-03-15T08:41:43.671Z,69.73
2023-03-15T08:44:11.898Z,70.34
2023-03-15T08:46:39.906Z,67.82
2023-03-15T08:49:09.245Z,66.93
2023-03-15T08:51:37.162Z,66.21
2023-03-15T08:54:05.288Z,65.41
2023-03-15T08:56:33.796Z,64.87
2023-03-15T08:59:01.770Z,64.79
2023-03-15T09:01:30.889Z,67.95
2023-03-15T09:03:58.830Z,66.86
2023-03-15T09:06:28.719Z,64.83
2023-03-15T09:08:56.840Z,62.34
2023-03-15T09:11:24.713Z,61.40
2023-03-15T09:13:52.686Z,58.93
2023-03-15T09:16:20.573Z,59.35
2023-03-15T09:18:48.554Z,58.74
2023-03-15T09:21:16.914Z,59.49
2023-03-15T09:23:46.202Z,59.62
2023-03-15T09:26:14.131Z,57.72
2023-03-15T09:28:41.985Z,55.42
2023-03-15T09:31:10.057Z,56.10
2023-03-15T09:33:38.678Z,55.48
2023-03-15T09:36:07.091Z,52.65
2023-03-15T09:38:35.047Z,51.83
2023-03-15T09:41:04.864Z,53.82
2023-03-15T09:43:53.238Z,53.11
2023-03-15T09:46:28.929Z,53.89
2023-03-15T09:49:03.967Z,52.11
2023-03-15T09:51:40.729Z,50.59
2023-03-15T09:54:13.435Z,49.75
2023-03-15T09:56:47.304Z,50.35
2023-03-15T09:59:17.820Z,51.12
2023-03-15T10:01:46.518Z,50.05
2023-03-15T10:04:24.369Z,52.96
2023-03-15T10:06:56.424Z,54.86
2023-03-15T10:09:26.707Z,52.01
2023-03-15T10:12:05.231Z,52.04
2023-03-15T10:15:08.391Z,54.94
2023-03-15T10:17:42.262Z,55.64
2023-03-15T10:20:16.176Z,53.89
2023-03-15T10:22:51.271Z,54.24
2023-03-15T10:25:23.565Z,53.74
2023-03-15T10:27:57.326Z,52.48
2023-03-15T10:30:26.739Z,51.75
2023-03-15T10:33:01.282Z,52.46
2023-03-15T10:35:29.685Z,51.96
2023-03-15T10:37:57.642Z,52.17
2023-03-15T10:40:41.374Z,52.19
2023-03-15T10:43:19.376Z,51.64
2023-03-15T10:46:00.994Z,53.40
2023-03-15T10:48:30.351Z,50.88
2023-03-15T10:50:59.340Z,48.85
2023-03-15T10:53:27.344Z,47.43
2023-03-15T10:56:05.363Z,47.98
2023-03-15T10:58:43.246Z,46.41
2023-03-15T11:01:23.298Z,46.98
2023-03-15T11:04:03.322Z,47.33
2023-03-15T11:06:42.093Z,46.28
2023-03-15T11:09:12.179Z,47.00
2023-03-15T11:11:52.053Z,48.38
2023-03-15T11:14:21.838Z,50.11
2023-03-15T11:16:52.286Z,50.11
2023-03-15T11:19:24.168Z,49.19
2023-03-15T11:21:52.677Z,47.10
2023-03-15T11:24:31.521Z,46.39
2023-03-15T11:27:01.806Z,46.27
2023-03-15T11:29:33.310Z,47.62
2023-03-15T11:32:02.412Z,46.61
2023-03-15T11:34:40.267Z,45.39
2023-03-15T11:37:15.838Z,45.60
2023-03-15T11:39:50.319Z,48.19
2023-03-15T11:42:26.215Z,47.88
2023-03-15T11:44:59.305Z,47.95
2023-03-15T11:47:36.289Z,47.63
2023-03-15T11:50:04.885Z,46.02
2023-03-15T11:52:33.157Z,46.42
2023-03-15T11:55:03.741Z,45.09
2023-03-15T11:57:41.573Z,45.95
2023-03-15T12:00:49.213Z,45.87
2023-03-15T12:03:49.445Z,46.11
2023-03-15T12:06:38.588Z,46.08
2023-03-15T12:09:40.708Z,45.65
2023-03-15T12:12:39.020Z,46.01
2023-03-15T12:15:36.432Z,47.01
2023-03-15T12:18:06.436Z,46.64
2023-03-15T12:20:37.873Z,47.75
2023-03-15T12:23:30.003Z,49.58
2023-03-15T12:26:00.250Z,50.22
2023-03-15T12:28:35.173Z,50.28
2023-03-15T12:31:06.907Z,49.84
2023-03-15T12:33:46.660Z,49.98
2023-03-15T12:36:30.661Z,50.03
2023-03-15T12:39:20.881Z,49.29
2023-03-15T12:41:50.193Z,49.66
2023-03-15T12:44:28.226Z,49.07
2023-03-15T12:47:01.218Z,48.73
2023-03-15T12:49:35.050Z,49.03
2023-03-15T12:52:05.622Z,48.77
2023-03-15T12:54:40.523Z,47.92
2023-03-15T12:57:12.335Z,46.82
2023-03-15T12:59:49.383Z,46.98
2023-03-15T13:02:39.614Z,47.24
2023-03-15T13:05:23.556Z,47.57
2023-03-15T13:07:59.839Z,46.93
2023-03-15T13:10:57.172Z,47.51
2023-03-15T13:13:46.123Z,47.50
2023-03-15T13:16:27.916Z,46.73
2023-03-15T13:19:05.457Z,46.35
2023-03-15T13:21:36.395Z,46.12
2023-03-15T13:24:13.910Z,46.02
2023-03-15T13:26:52.189Z,46.44
2023-03-15T13:29:26.229Z,46.57
2023-03-15T13:32:03.796Z,46.51
2023-03-15T13:34:34.228Z,46.53
2023-03-15T13:37:03.308Z,46.55
2023-03-15T13:39:33.591Z,46.05
2023-03-15T13:42:03.672Z,45.92
2023-03-15T13:44:33.216Z,45.18
2023-03-15T13:47:02.661Z,45.43
2023-03-15T13:49:35.006Z,45.41
2023-03-15T13:52:12.056Z,45.13
2023-03-15T13:54:42.090Z,44.98
2023-03-15T13:57:15.058Z,45.23
2023-03-15T13:59:48.645Z,46.01
2023-03-15T14:02:21.678Z,45.76
2023-03-15T14:04:53.632Z,46.06
2023-03-15T14:07:29.229Z,46.52
2023-03-15T14:10:23.006Z,46.74
2023-03-15T14:12:52.268Z,47.10
2023-03-15T14:15:23.513Z,46.29
2023-03-15T14:18:02.095Z,46.38
2023-03-15T14:20:33.661Z,46.72
2023-03-15T14:23:03.125Z,46.55
2023-03-15T14:25:35.776Z,47.35
2023-03-15T14:28:04.768Z,46.47
2023-03-15T14:30:36.601Z,46.93
2023-03-15T14:33:07.614Z,46.29
2023-03-15T14:35:46.139Z,46.19
2023-03-15T14:38:20.065Z,46.48
2023-03-15T14:40:48.763Z,46.41
2023-03-15T14:43:16.842Z,45.19
2023-03-15T14:45:48.719Z,45.00
2023-03-15T14:48:27.517Z,46.03
2023-03-15T14:50:55.840Z,46.13
2023-03-15T14:53:26.178Z,46.60
2023-03-15T14:55:54.107Z,46.76
2023-03-15T14:58:23.496Z,46.23
2023-03-15T15:00:53.790Z,46.87
2023-03-15T15:03:39.577Z,47.49
2023-03-15T15:06:09.837Z,47.16
2023-03-15T15:08:40.147Z,46.50
2023-03-15T15:11:09.447Z,46.13
2023-03-15T15:13:38.697Z,47.35
2023-03-15T15:16:07.614Z,46.27
2023-03-15T15:18:38.200Z,46.08
2023-03-15T15:21:13.920Z,47.18
2023-03-15T15:23:57.486Z,47.89
2023-03-15T15:26:27.887Z,48.02
2023-03-15T15:28:56.614Z,47.96
2023-03-15T15:31:27.028Z,48.01
2023-03-15T15:33:57.822Z,47.58
2023-03-15T15:36:29.904Z,47.98
2023-03-15T15:39:01.299Z,48.20
2023-03-15T15:41:31.578Z,48.70
2023-03-15T15:43:59.654Z,48.41
2023-03-15T15:46:28.052Z,47.59
2023-03-15T15:48:58.822Z,47.41
2023-03-15T15:51:29.415Z,46.85
2023-03-15T15:53:59.699Z,47.17
2023-03-15T15:56:32.824Z,47.12
2023-03-15T15:59:01.883Z,47.59
2023-03-15T16:01:29.826Z,47.75
2023-03-15T16:03:59.188Z,47.50
2023-03-15T16:06:27.368Z,48.15
2023-03-15T16:08:56.299Z,49.50
2023-03-15T16:11:24.503Z,49.78
2023-03-15T16:13:54.535Z,49.83
2023-03-15T16:16:23.209Z,50.02
2023-03-15T16:18:51.118Z,50.59
2023-03-15T16:21:27.916Z,50.61
2023-03-15T16:24:00.366Z,50.27
2023-03-15T16:26:28.818Z,50.35
2023-03-15T16:28:56.813Z,49.82
2023-03-15T16:31:24.879Z,49.58
2023-03-15T16:33:52.763Z,49.90
2023-03-15T16:36:23.393Z,50.60
2023-03-15T16:38:51.332Z,50.51
2023-03-15T16:41:19.278Z,50.04
2023-03-15T16:43:49.220Z,50.75
2023-03-15T16:46:18.192Z,50.94
2023-03-15T16:48:46.256Z,50.22
2023-03-15T16:51:17.008Z,50.44
2023-03-15T16:53:46.501Z,50.88
2023-03-15T16:56:16.449Z,51.67
2023-03-15T16:58:45.633Z,51.13
2023-03-15T17:01:13.620Z,51.38
2023-03-15T17:03:41.545Z,51.55
2023-03-15T17:06:20.083Z,51.39
2023-03-15T17:08:50.049Z,50.91
2023-03-15T17:11:19.209Z,50.67
2023-03-15T17:13:47.401Z,50.63
2023-03-15T17:16:16.744Z,50.23
2023-03-15T17:18:46.102Z,49.94
2023-03-15T17:21:15.449Z,50.06
2023-03-15T17:23:44.001Z,49.53
2023-03-15T17:26:17.781Z,50.70
2023-03-15T17:28:46.854Z,51.12
2023-03-15T17:31:25.340Z,51.77
2023-03-15T17:33:53.703Z,52.80
2023-03-15T17:36:24.594Z,52.76
2023-03-15T17:38:53.125Z,52.75
2023-03-15T17:41:25.403Z,51.86
2023-03-15T17:43:53.615Z,51.02
2023-03-15T17:46:28.107Z,51.87
2023-03-15T17:48:56.559Z,51.91
2023-03-15T17:51:26.672Z,52.19
2023-03-15T17:53:55.636Z,52.00
2023-03-15T17:56:24.940Z,51.96
2023-03-15T17:58:53.424Z,51.72
2023-03-15T18:01:23.431Z,51.42
2023-03-15T18:03:52.266Z,51.71
2023-03-15T18:06:21.293Z,51.68
2023-03-15T18:08:49.746Z,51.57
2023-03-15T18:11:31.944Z,51.33
2023-03-15T18:13:59.921Z,51.85
2023-03-15T18:16:28.063Z,51.92
2023-03-15T18:18:56.065Z,51.68
2023-03-15T18:21:27.422Z,51.91
2023-03-15T18:23:55.679Z,51.09
2023-03-15T18:26:24.001Z,51.70
2023-03-15T18:28:53.269Z,52.02
2023-03-15T18:31:22.770Z,52.17
2023-03-15T18:33:52.594Z,52.08
2023-03-15T18:36:21.087Z,52.36
2023-03-15T18:38:49.393Z,52.79
2023-03-15T18:41:20.657Z,53.15
2023-03-15T18:43:51.497Z,52.89
2023-03-15T18:46:22.731Z,53.95
2023-03-15T18:48:53.367Z,53.18
2023-03-15T18:51:25.691Z,53.46
2023-03-15T18:53:54.138Z,53.65
2023-03-15T18:56:24.011Z,53.64
2023-03-15T18:58:53.645Z,52.99
2023-03-15T19:01:24.455Z,52.67
2023-03-15T19:03:53.878Z,53.13
2023-03-15T19:06:22.834Z,53.59
2023-03-15T19:08:54.193Z,53.36
2023-03-15T19:11:24.021Z,52.94
2023-03-15T19:13:52.241Z,52.95
2023-03-15T19:16:20.719Z,52.90
2023-03-15T19:18:51.106Z,53.34
2023-03-15T19:21:19.327Z,53.68
2023-03-15T19:23:47.866Z,53.49
2023-03-15T19:26:15.893Z,53.55
2023-03-15T19:28:43.945Z,53.68
2023-03-15T19:31:12.521Z,53.76
2023-03-15T19:33:40.539Z,54.38
2023-03-15T19:36:10.818Z,54.60
2023-03-15T19:38:38.851Z,55.13
2023-03-15T19:41:10.777Z,54.77
2023-03-15T19:43:42.390Z,55.79
2023-03-15T19:46:13.786Z,55.13
2023-03-15T19:48:42.282Z,56.21
2023-03-15T19:51:11.603Z,56.47
2023-03-15T19:53:39.571Z,56.19
2023-03-15T19:56:09.574Z,55.95
2023-03-15T19:58:37.481Z,56.26
2023-03-15T20:01:05.801Z,56.24
2023-03-15T20:03:34.911Z,57.02
2023-03-15T20:06:08.258Z,57.38
2023-03-15T20:08:37.521Z,57.90
2023-03-15T20:11:06.778Z,58.34
2023-03-15T20:13:35.302Z,58.64
2023-03-15T20:16:04.091Z,58.69
2023-03-15T20:18:32.417Z,58.64
2023-03-15T20:21:00.359Z,57.95
2023-03-15T20:23:28.570Z,57.40
2023-03-15T20:26:06.876Z,57.77
2023-03-15T20:28:34.828Z,57.61
2023-03-15T20:31:07.504Z,57.70
2023-03-15T20:33:35.390Z,57.74
2023-03-15T20:36:03.589Z,57.60
2023-03-15T20:38:34.341Z,57.65
2023-03-15T20:41:02.462Z,57.43
2023-03-15T20:43:32.948Z,57.74
2023-03-15T20:46:04.400Z,57.60
2023-03-15T20:48:35.036Z,57.04
2023-03-15T20:51:07.171Z,56.89
2023-03-15T20:53:36.525Z,56.72
2023-03-15T20:56:06.401Z,56.75
2023-03-15T20:58:35.737Z,57.04
2023-03-15T21:01:07.637Z,57.11
2023-03-15T21:03:35.936Z,57.64
2023-03-15T21:06:06.149Z,57.24
2023-03-15T21:08:34.928Z,57.57
2023-03-15T21:11:03.382Z,57.52
2023-03-15T21:13:31.446Z,57.44
2023-03-15T21:16:04.060Z,57.51
2023-03-15T21:18:33.026Z,56.89
2023-03-15T21:21:02.405Z,58.38
2023-03-15T21:23:31.555Z,58.13
2023-03-15T21:26:02.022Z,58.41
2023-03-15T21:28:30.693Z,59.10
2023-03-15T21:31:00.507Z,59.42
2023-03-15T21:33:31.076Z,59.63
2023-03-15T21:36:00.484Z,58.80
2023-03-15T21:38:29.071Z,58.43
2023-03-15T21:40:59.335Z,58.42
2023-03-15T21:43:28.614Z,58.24
2023-03-15T21:45:56.918Z,58.49
2023-03-15T21:48:26.354Z,58.67
2023-03-15T21:50:54.559Z,58.62
2023-03-15T21:53:22.772Z,58.74
2023-03-15T21:55:50.834Z,58.31
2023-03-15T21:58:19.078Z,58.52
2023-03-15T22:00:47.024Z,58.82
2023-03-15T22:03:17.817Z,58.84
2023-03-15T22:05:48.059Z,59.60
2023-03-15T22:08:15.954Z,60.18
2023-03-15T22:10:43.906Z,59.99
2023-03-15T22:13:11.782Z,60.16
2023-03-15T22:15:39.677Z,60.16
2023-03-15T22:18:07.623Z,59.71
2023-03-15T22:20:35.506Z,60.08
2023-03-15T22:23:05.004Z,59.86
2023-03-15T22:25:33.041Z,59.43
2023-03-15T22:28:01.805Z,59.86
2023-03-15T22:30:29.744Z,59.29
2023-03-15T22:32:57.734Z,59.03
2023-03-15T22:35:25.839Z,59.66
2023-03-15T22:37:56.553Z,59.04
2023-03-15T22:40:27.951Z,59.24
2023-03-15T22:42:57.514Z,59.45
2023-03-15T22:45:26.075Z,58.80
2023-03-15T22:47:54.308Z,58.73
2023-03-15T22:50:22.282Z,58.75
2023-03-15T22:52:51.857Z,58.45
2023-03-15T22:55:20.701Z,58.30
2023-03-15T22:57:50.054Z,58.69
2023-03-15T23:00:22.243Z,58.79
2023-03-15T23:02:50.712Z,59.30
2023-03-15T23:05:19.609Z,58.87
2023-03-15T23:07:47.788Z,58.44
2023-03-15T23:10:16.353Z,58.94
2023-03-15T23:12:44.278Z,58.96
2023-03-15T23:15:15.194Z,58.87
2023-03-15T23:17:46.663Z,58.18
2023-03-15T23:20:17.210Z,58.32
2023-03-15T23:22:45.841Z,57.70
2023-03-15T23:25:15.700Z,57.68
2023-03-15T23:27:43.590Z,57.56
2023-03-15T23:30:14.379Z,57.38
2023-03-15T23:32:42.969Z,57.44
2023-03-15T23:35:13.268Z,57.69
2023-03-15T23:37:41.301Z,58.27
2023-03-15T23:40:15.232Z,59.25
2023-03-15T23:42:44.005Z,58.96
2023-03-15T23:45:15.293Z,58.95
2023-03-15T23:47:43.938Z,59.14
2023-03-15T23:50:13.856Z,59.65
2023-03-15T23:52:42.291Z,59.46
2023-03-15T23:55:11.129Z,59.15
2023-03-15T23:57:39.024Z,59.40
